| time (UTC) | temp F | wind direction | speed MPH | gust MPH | rain 1hr in | rain 24hr in | rain mn in | humidity % | barometer mb |
| 20260507141513 | 75 | 243 | 0.0 | 1.0 | 0.00 | 0.00 | 0.00 | 25 | 985.4 |
| 20260507140011 | 73 | 255 | 0.0 | 0.0 | 0.00 | 0.00 | 0.00 | 27 | 985.4 |
| 20260507134510 | 73 | 245 | 0.0 | 0.0 | 0.00 | 0.00 | 0.00 | 26 | 985.2 |
| 20260507133005 | 72 | 256 | 0.0 | 0.0 | 0.00 | 0.00 | 0.00 | 27 | 985.0 |
| 20260507131501 | 0 | 0.0 | 0.0 | 0.00 | 0.00 | 0.00 | 984.9 | ||
| 20260507130108 | 0 | 0.0 | 0.0 | 0.00 | 0.00 | 0.00 | 984.8 | ||
| 20260507124615 | 69 | 26 | 4.0 | 7.0 | 0.00 | 0.00 | 0.00 | 30 | 984.7 |
| 20260507123102 | 0 | 0.0 | 0.0 | 0.00 | 0.00 | 0.00 | 984.7 | ||
| 20260507121550 | 0 | 0.0 | 0.0 | 0.00 | 0.00 | 0.00 | 984.7 | ||
| 20260507120039 | 0 | 0.0 | 0.0 | 0.00 | 0.00 | 0.00 | 984.7 | ||
| 20260507114534 | 0 | 0.0 | 0.0 | 0.00 | 0.00 | 0.00 | 984.9 | ||
| 20260507113025 | 0 | 0.0 | 0.0 | 0.00 | 0.00 | 0.00 | 985.1 | ||
| 20260507111521 | 0 | 0.0 | 0.0 | 0.00 | 0.00 | 0.00 | 985.2 | ||
| 20260507110023 | 0 | 0.0 | 0.0 | 0.00 | 0.00 | 0.00 | 985.3 | ||
| 20260507104515 | 0 | 0.0 | 0.0 | 0.00 | 0.00 | 0.00 | 985.4 | ||
| 20260507103006 | 0 | 0.0 | 0.0 | 0.00 | 0.00 | 0.00 | 985.3 | ||
| 20260507101503 | 0 | 0.0 | 0.0 | 0.00 | 0.00 | 0.00 | 985.5 | ||
| 20260507100001 | 68 | 247 | 0.0 | 0.0 | 0.00 | 0.00 | 0.00 | 35 | 985.5 |
| 20260507094559 | 67 | 288 | 0.0 | 0.0 | 0.00 | 0.00 | 0.00 | 37 | 985.5 |
| 20260507093100 | 67 | 236 | 0.0 | 0.0 | 0.00 | 0.00 | 0.00 | 34 | 985.4 |
| 20260507091557 | 66 | 260 | 0.0 | 1.0 | 0.00 | 0.00 | 0.00 | 34 | 985.5 |
| 20260507090054 | 65 | 246 | 0.0 | 0.0 | 0.00 | 0.00 | 0.00 | 35 | 985.5 |
| 20260507084556 | 66 | 257 | 0.0 | 0.0 | 0.00 | 0.00 | 0.00 | 35 | 985.6 |
| 20260507083103 | 67 | 257 | 0.0 | 0.0 | 0.00 | 0.00 | 0.00 | 32 | 985.6 |
| 20260507081552 | 67 | 241 | 0.0 | 0.0 | 0.00 | 0.00 | 0.00 | 33 | 985.7 |
| 20260507080042 | 67 | 256 | 0.0 | 0.0 | 0.00 | 0.00 | 0.00 | 34 | 985.7 |
| 20260507074541 | 67 | 249 | 0.0 | 0.0 | 0.00 | 0.00 | 0.00 | 36 | 985.8 |
| 20260507073010 | 67 | 250 | 0.0 | 0.0 | 0.00 | 0.00 | 0.00 | 35 | 985.9 |
| 20260507071512 | 67 | 255 | 0.0 | 0.0 | 0.00 | 0.00 | 0.00 | 37 | 985.7 |
| 20260507070042 | 67 | 245 | 0.0 | 0.0 | 0.00 | 0.00 | 0.00 | 39 | 985.8 |
| 20260507064541 | 69 | 245 | 0.0 | 0.0 | 0.00 | 0.00 | 0.00 | 34 | 985.7 |
| 20260507063041 | 70 | 195 | 0.0 | 0.0 | 0.00 | 0.00 | 0.00 | 29 | 985.6 |
| 20260507061536 | 70 | 155 | 0.0 | 0.0 | 0.00 | 0.00 | 0.00 | 28 | 985.7 |
| 20260507060034 | 71 | 96 | 0.0 | 0.0 | 0.00 | 0.00 | 0.00 | 29 | 985.6 |
| 20260507054540 | 71 | 84 | 0.0 | 0.0 | 0.00 | 0.00 | 0.00 | 30 | 985.6 |
| 20260507053034 | 72 | 138 | 0.0 | 0.0 | 0.00 | 0.00 | 0.00 | 29 | 985.7 |
| 20260507051530 | 72 | 119 | 0.0 | 0.0 | 0.00 | 0.00 | 0.00 | 28 | 985.7 |
| 20260507050035 | 72 | 120 | 0.0 | 0.0 | 0.00 | 0.00 | 0.00 | 29 | 985.6 |
| 20260507044536 | 72 | 115 | 0.0 | 0.0 | 0.00 | 0.00 | 0.00 | 30 | 985.5 |
| 20260507043028 | 72 | 91 | 0.0 | 0.0 | 0.00 | 0.00 | 0.00 | 33 | 985.4 |
| 20260507041531 | 72 | 91 | 0.0 | 0.0 | 0.00 | 0.00 | 0.00 | 35 | 985.3 |
| 20260507040024 | 73 | 89 | 0.0 | 0.0 | 0.00 | 0.00 | 0.00 | 32 | 985.0 |
| 20260507034525 | 74 | 115 | 0.0 | 0.0 | 0.00 | 0.00 | 0.00 | 30 | 984.8 |
| 20260507033028 | 75 | 122 | 0.0 | 0.0 | 0.00 | 0.00 | 0.00 | 26 | 984.7 |
| 20260507031527 | 76 | 97 | 0.0 | 0.0 | 0.00 | 0.00 | 0.00 | 26 | 984.5 |
| 20260507030022 | 77 | 103 | 0.0 | 0.0 | 0.00 | 0.00 | 0.00 | 24 | 984.2 |
| 20260507024523 | 78 | 102 | 0.0 | 0.0 | 0.00 | 0.00 | 0.00 | 24 | 984.1 |
| 20260507023021 | 78 | 69 | 0.0 | 0.0 | 0.00 | 0.00 | 0.00 | 24 | 983.9 |
| 20260507021517 | 79 | 100 | 0.0 | 0.0 | 0.00 | 0.00 | 0.00 | 23 | 983.8 |
| 20260507020016 | 80 | 85 | 0.0 | 0.0 | 0.00 | 0.00 | 0.00 | 22 | 983.8 |
| 20260507014519 | 81 | 118 | 0.0 | 0.0 | 0.00 | 0.00 | 0.00 | 21 | 983.7 |
| 20260507013022 | 81 | 102 | 0.0 | 1.0 | 0.00 | 0.00 | 0.00 | 22 | 983.7 |
| 20260507011544 | 81 | 135 | 0.0 | 0.0 | 0.00 | 0.00 | 0.00 | 21 | 983.7 |
| 20260507010044 | 82 | 82 | 0.0 | 1.0 | 0.00 | 0.00 | 0.00 | 22 | 983.6 |
| 20260507004544 | 82 | 150 | 0.0 | 0.0 | 0.00 | 0.00 | 0.00 | 21 | 983.6 |
| 20260507003043 | 82 | 138 | 0.0 | 7.0 | 0.00 | 0.00 | 0.00 | 21 | 983.6 |
| 20260507001542 | 82 | 89 | 0.0 | 0.0 | 0.00 | 0.00 | 0.00 | 22 | 983.5 |
| 20260507000039 | 82 | 135 | 0.0 | 0.0 | 0.00 | 0.00 | 0.00 | 21 | 983.7 |
| 20260506234537 | 82 | 115 | 0.0 | 0.0 | 0.00 | 0.00 | 0.00 | 21 | 983.7 |
| 20260506233033 | 83 | 90 | 0.0 | 0.0 | 0.00 | 0.00 | 0.00 | 21 | 983.9 |
| 20260506231544 | 83 | 143 | 0.0 | 0.0 | 0.00 | 0.00 | 0.00 | 22 | 984.0 |
| 20260506230034 | 83 | 134 | 0.0 | 0.0 | 0.00 | 0.00 | 0.00 | 21 | 984.2 |
| 20260506224527 | 82 | 159 | 0.0 | 1.0 | 0.00 | 0.00 | 0.00 | 23 | 984.3 |
| 20260506223037 | 81 | 200 | 0.0 | 1.0 | 0.00 | 0.00 | 0.00 | 22 | 984.6 |
| 20260506221521 | 82 | 143 | 0.0 | 0.0 | 0.00 | 0.00 | 0.00 | 24 | 984.7 |
| 20260506220024 | 82 | 141 | 0.0 | 0.0 | 0.00 | 0.00 | 0.00 | 22 | 984.9 |
| 20260506214516 | 82 | 78 | 0.0 | 0.0 | 0.00 | 0.00 | 0.00 | 23 | 985.0 |
| 20260506213014 | 81 | 136 | 0.0 | 0.0 | 0.00 | 0.00 | 0.00 | 23 | 985.4 |
| 20260506211515 | 81 | 131 | 0.0 | 0.0 | 0.00 | 0.00 | 0.00 | 22 | 985.6 |
| 20260506210010 | 80 | 84 | 0.0 | 0.0 | 0.00 | 0.00 | 0.00 | 23 | 985.8 |
| 20260506204508 | 80 | 127 | 0.0 | 0.0 | 0.00 | 0.00 | 0.00 | 24 | 986.0 |
| 20260506203009 | 80 | 225 | 0.0 | 0.0 | 0.00 | 0.00 | 0.00 | 23 | 986.2 |
| 20260506201504 | 79 | 332 | 0.0 | 0.0 | 0.00 | 0.00 | 0.00 | 24 | 986.3 |
| 20260506200005 | 80 | 158 | 0.0 | 1.0 | 0.00 | 0.00 | 0.00 | 23 | 986.5 |
| 20260506194500 | 78 | 42 | 0.0 | 0.0 | 0.00 | 0.00 | 0.00 | 24 | 986.6 |
| 20260506193101 | 79 | 195 | 0.0 | 0.0 | 0.00 | 0.00 | 0.00 | 23 | 986.8 |
| 20260506191600 | 78 | 148 | 0.0 | 0.0 | 0.00 | 0.00 | 0.00 | 24 | 986.9 |
| 20260506190056 | 78 | 129 | 0.0 | 5.0 | 0.00 | 0.00 | 0.00 | 25 | 987.0 |
| 20260506184604 | 78 | 165 | 0.0 | 0.0 | 0.00 | 0.00 | 0.00 | 25 | 987.2 |
| 20260506183059 | 77 | 104 | 0.0 | 0.0 | 0.00 | 0.00 | 0.00 | 25 | 987.4 |
| 20260506181545 | 76 | 110 | 0.0 | 0.0 | 0.00 | 0.00 | 0.00 | 28 | 987.5 |
| 20260506180048 | 76 | 111 | 0.0 | 0.0 | 0.00 | 0.00 | 0.00 | 28 | 987.6 |
| 20260506174543 | 76 | 129 | 0.0 | 0.0 | 0.00 | 0.00 | 0.00 | 28 | 987.8 |
| 20260506173045 | 74 | 94 | 0.0 | 0.0 | 0.00 | 0.00 | 0.00 | 30 | 987.9 |
| 20260506171539 | 74 | 250 | 0.0 | 1.0 | 0.00 | 0.00 | 0.00 | 29 | 987.8 |
| 20260506170048 | 74 | 125 | 0.0 | 0.0 | 0.00 | 0.00 | 0.00 | 30 | 987.8 |
| 20260506164530 | 72 | 100 | 0.0 | 0.0 | 0.00 | 0.00 | 0.00 | 33 | 987.8 |
| 20260506163029 | 72 | 195 | 0.0 | 0.0 | 0.00 | 0.00 | 0.00 | 31 | 987.7 |
| 20260506161528 | 71 | 83 | 0.0 | 0.0 | 0.00 | 0.00 | 0.00 | 32 | 987.6 |
| 20260506160028 | 71 | 148 | 0.0 | 0.0 | 0.00 | 0.00 | 0.00 | 33 | 987.6 |
| 20260506154527 | 70 | 337 | 0.0 | 0.0 | 0.00 | 0.00 | 0.00 | 33 | 987.6 |
| 20260506153019 | 68 | 49 | 0.0 | 0.0 | 0.00 | 0.00 | 0.00 | 36 | 987.8 |
| 20260506151517 | 67 | 321 | 0.0 | 0.0 | 0.00 | 0.00 | 0.00 | 36 | 987.8 |
| 20260506150012 | 66 | 333 | 0.0 | 0.0 | 0.00 | 0.00 | 0.00 | 38 | 987.8 |
| 20260506144507 | 64 | 245 | 0.0 | 0.0 | 0.00 | 0.00 | 0.00 | 38 | 987.7 |
| 20260506143007 | 63 | 236 | 0.0 | 0.0 | 0.00 | 0.00 | 0.00 | 39 | 987.7 |